sensor_id;sensor_type;location;lat;lon;timestamp;P1;durP1;ratioP1;P2;durP2;ratioP2
61570;SDS011;47463;49.884;10.010;2023-11-19T00:00:00;12.6;;;8.1;;
61570;SDS011;47463;49.884;10.010;2023-11-19T00:05:02;11.1;;;7.4;;
61570;SDS011;47463;49.884;10.010;2023-11-19T00:10:00;15.2;;;8.3;;
61570;SDS011;47463;49.884;10.010;2023-11-19T00:15:00;13.8;;;8.2;;
61570;SDS011;47463;49.884;10.010;2023-11-19T00:20:00;13.8;;;8.2;;
61570;SDS011;47463;49.884;10.010;2023-11-19T00:25:00;15.8;;;9.1;;
61570;SDS011;47463;49.884;10.010;2023-11-19T00:30:00;15.3;;;8.5;;
61570;SDS011;47463;49.884;10.010;2023-11-19T00:35:00;13.8;;;8.6;;
61570;SDS011;47463;49.884;10.010;2023-11-19T00:40:00;18.1;;;9.7;;
61570;SDS011;47463;49.884;10.010;2023-11-19T00:45:00;13.5;;;8;;
61570;SDS011;47463;49.884;10.010;2023-11-19T00:50:00;13.5;;;8;;
61570;SDS011;47463;49.884;10.010;2023-11-19T00:55:00;15.1;;;8.4;;
61570;SDS011;47463;49.884;10.010;2023-11-19T01:00:00;16.5;;;9.4;;
61570;SDS011;47463;49.884;10.010;2023-11-19T01:05:00;18.8;;;8.9;;
61570;SDS011;47463;49.884;10.010;2023-11-19T01:10:00;16.1;;;8.9;;
61570;SDS011;47463;49.884;10.010;2023-11-19T01:15:00;14.2;;;8.7;;
61570;SDS011;47463;49.884;10.010;2023-11-19T01:20:00;14.2;;;8.7;;
61570;SDS011;47463;49.884;10.010;2023-11-19T01:25:00;18.4;;;9.2;;
61570;SDS011;47463;49.884;10.010;2023-11-19T01:30:00;16.7;;;9.2;;
61570;SDS011;47463;49.884;10.010;2023-11-19T01:35:00;15;;;9;;
61570;SDS011;47463;49.884;10.010;2023-11-19T01:40:00;13.5;;;8.1;;
61570;SDS011;47463;49.884;10.010;2023-11-19T01:45:00;15.4;;;9.1;;
61570;SDS011;47463;49.884;10.010;2023-11-19T01:50:00;15.4;;;9.1;;
61570;SDS011;47463;49.884;10.010;2023-11-19T01:55:00;15.3;;;8.4;;
61570;SDS011;47463;49.884;10.010;2023-11-19T02:00:00;17.4;;;9.8;;
61570;SDS011;47463;49.884;10.010;2023-11-19T02:05:00;20.9;;;9.7;;
61570;SDS011;47463;49.884;10.010;2023-11-19T02:10:00;17.5;;;10.3;;
61570;SDS011;47463;49.884;10.010;2023-11-19T02:15:00;14.8;;;9;;
61570;SDS011;47463;49.884;10.010;2023-11-19T02:20:00;14.8;;;9;;
61570;SDS011;47463;49.884;10.010;2023-11-19T02:25:00;15.2;;;9;;
61570;SDS011;47463;49.884;10.010;2023-11-19T02:30:00;16.7;;;9.8;;
61570;SDS011;47463;49.884;10.010;2023-11-19T02:35:00;15.8;;;8.4;;
61570;SDS011;47463;49.884;10.010;2023-11-19T02:40:00;15.6;;;8.3;;
61570;SDS011;47463;49.884;10.010;2023-11-19T02:45:00;20.9;;;10.5;;
61570;SDS011;47463;49.884;10.010;2023-11-19T02:50:00;20.9;;;10.5;;
61570;SDS011;47463;49.884;10.010;2023-11-19T02:55:00;19.7;;;10.4;;
61570;SDS011;47463;49.884;10.010;2023-11-19T03:00:00;16.9;;;8.8;;
61570;SDS011;47463;49.884;10.010;2023-11-19T03:05:00;11.4;;;6.8;;
61570;SDS011;47463;49.884;10.010;2023-11-19T03:10:00;13.7;;;6.3;;
61570;SDS011;47463;49.884;10.010;2023-11-19T03:15:00;9.6;;;5.9;;
61570;SDS011;47463;49.884;10.010;2023-11-19T03:20:00;9.6;;;5.9;;
61570;SDS011;47463;49.884;10.010;2023-11-19T03:25:00;8.6;;;5.5;;
61570;SDS011;47463;49.884;10.010;2023-11-19T03:30:00;6.3;;;4.7;;
61570;SDS011;47463;49.884;10.010;2023-11-19T03:35:00;5.7;;;3.6;;
61570;SDS011;47463;49.884;10.010;2023-11-19T03:40:00;5.3;;;3.6;;
61570;SDS011;47463;49.884;10.010;2023-11-19T03:45:00;5.1;;;3.2;;
61570;SDS011;47463;49.884;10.010;2023-11-19T03:50:00;5.1;;;3.2;;
61570;SDS011;47463;49.884;10.010;2023-11-19T03:55:00;5.7;;;3.5;;
61570;SDS011;47463;49.884;10.010;2023-11-19T04:00:00;5.2;;;3.2;;
61570;SDS011;47463;49.884;10.010;2023-11-19T04:05:00;3.7;;;2.6;;
61570;SDS011;47463;49.884;10.010;2023-11-19T04:10:00;3.1;;;2.6;;
61570;SDS011;47463;49.884;10.010;2023-11-19T04:15:00;2.9;;;2.2;;
61570;SDS011;47463;49.884;10.010;2023-11-19T04:20:00;2.9;;;2.2;;
61570;SDS011;47463;49.884;10.010;2023-11-19T04:25:00;2.4;;;1.7;;
61570;SDS011;47463;49.884;10.010;2023-11-19T04:30:00;2.1;;;1.6;;
61570;SDS011;47463;49.884;10.010;2023-11-19T04:35:00;2.3;;;1.6;;
61570;SDS011;47463;49.884;10.010;2023-11-19T04:40:00;5;;;1.7;;
61570;SDS011;47463;49.884;10.010;2023-11-19T04:45:00;2.3;;;1.8;;
61570;SDS011;47463;49.884;10.010;2023-11-19T04:50:00;2.3;;;1.8;;
61570;SDS011;47463;49.884;10.010;2023-11-19T04:55:00;2.6;;;2.1;;
61570;SDS011;47463;49.884;10.010;2023-11-19T05:00:00;3.1;;;2.3;;
61570;SDS011;47463;49.884;10.010;2023-11-19T05:05:00;4;;;2.4;;
61570;SDS011;47463;49.884;10.010;2023-11-19T05:10:00;4.4;;;2.3;;
61570;SDS011;47463;49.884;10.010;2023-11-19T05:15:00;3;;;2.3;;
61570;SDS011;47463;49.884;10.010;2023-11-19T05:20:00;3;;;2.3;;
61570;SDS011;47463;49.884;10.010;2023-11-19T05:25:00;3.7;;;2.7;;
61570;SDS011;47463;49.884;10.010;2023-11-19T05:30:00;4.8;;;3.1;;
61570;SDS011;47463;49.884;10.010;2023-11-19T05:35:00;4.2;;;2.9;;
61570;SDS011;47463;49.884;10.010;2023-11-19T05:40:00;4.1;;;2.8;;
61570;SDS011;47463;49.884;10.010;2023-11-19T05:45:00;5;;;2.9;;
61570;SDS011;47463;49.884;10.010;2023-11-19T05:50:00;5;;;2.9;;
61570;SDS011;47463;49.884;10.010;2023-11-19T05:55:00;3.9;;;3.2;;
61570;SDS011;47463;49.884;10.010;2023-11-19T06:00:00;6.2;;;4.1;;
61570;SDS011;47463;49.884;10.010;2023-11-19T06:05:00;9.1;;;4.3;;
61570;SDS011;47463;49.884;10.010;2023-11-19T06:10:00;4.8;;;3.6;;
61570;SDS011;47463;49.884;10.010;2023-11-19T06:15:00;5.1;;;3.9;;
61570;SDS011;47463;49.884;10.010;2023-11-19T06:20:00;5.1;;;3.9;;
61570;SDS011;47463;49.884;10.010;2023-11-19T06:25:00;6.8;;;4.2;;
61570;SDS011;47463;49.884;10.010;2023-11-19T06:30:00;5.8;;;4.3;;
61570;SDS011;47463;49.884;10.010;2023-11-19T06:35:00;4.6;;;3.1;;
61570;SDS011;47463;49.884;10.010;2023-11-19T06:40:00;4.2;;;3;;
61570;SDS011;47463;49.884;10.010;2023-11-19T06:45:00;4.3;;;3.2;;
61570;SDS011;47463;49.884;10.010;2023-11-19T06:50:00;4.3;;;3.2;;
61570;SDS011;47463;49.884;10.010;2023-11-19T06:55:00;4.5;;;3.2;;
61570;SDS011;47463;49.884;10.010;2023-11-19T07:00:00;4.5;;;3.1;;
61570;SDS011;47463;49.884;10.010;2023-11-19T07:05:00;4.5;;;2.8;;
61570;SDS011;47463;49.884;10.010;2023-11-19T07:10:00;3.4;;;2.3;;
61570;SDS011;47463;49.884;10.010;2023-11-19T07:15:00;3;;;2.1;;
61570;SDS011;47463;49.884;10.010;2023-11-19T07:20:00;3;;;2.1;;
61570;SDS011;47463;49.884;10.010;2023-11-19T07:25:00;4.3;;;2.6;;
61570;SDS011;47463;49.884;10.010;2023-11-19T07:30:00;3.8;;;2.4;;
61570;SDS011;47463;49.884;10.010;2023-11-19T07:35:00;3.7;;;2.7;;
61570;SDS011;47463;49.884;10.010;2023-11-19T07:40:00;4.8;;;2.9;;
61570;SDS011;47463;49.884;10.010;2023-11-19T07:45:00;6.9;;;3.4;;
61570;SDS011;47463;49.884;10.010;2023-11-19T07:50:00;6.9;;;3.4;;
61570;SDS011;47463;49.884;10.010;2023-11-19T07:55:00;4.2;;;2.8;;
61570;SDS011;47463;49.884;10.010;2023-11-19T08:00:00;6.3;;;3.6;;
61570;SDS011;47463;49.884;10.010;2023-11-19T08:05:00;5.3;;;3.9;;
61570;SDS011;47463;49.884;10.010;2023-11-19T08:10:00;4.1;;;2.6;;
61570;SDS011;47463;49.884;10.010;2023-11-19T08:15:00;3.1;;;2.1;;
61570;SDS011;47463;49.884;10.010;2023-11-19T08:20:00;3.1;;;2.1;;
61570;SDS011;47463;49.884;10.010;2023-11-19T08:25:00;3.5;;;2.2;;
61570;SDS011;47463;49.884;10.010;2023-11-19T08:30:00;2.6;;;1.8;;
61570;SDS011;47463;49.884;10.010;2023-11-19T08:35:00;2.3;;;1.7;;
61570;SDS011;47463;49.884;10.010;2023-11-19T08:40:00;2.6;;;1.9;;
61570;SDS011;47463;49.884;10.010;2023-11-19T08:45:00;1.7;;;1.2;;
61570;SDS011;47463;49.884;10.010;2023-11-19T08:50:00;1.7;;;1.2;;
61570;SDS011;47463;49.884;10.010;2023-11-19T08:55:00;1.7;;;1.2;;
61570;SDS011;47463;49.884;10.010;2023-11-19T09:00:00;1.6;;;1.3;;
61570;SDS011;47463;49.884;10.010;2023-11-19T09:05:00;2.8;;;1.4;;
61570;SDS011;47463;49.884;10.010;2023-11-19T09:10:00;2.8;;;1.9;;
61570;SDS011;47463;49.884;10.010;2023-11-19T09:15:00;3.6;;;2.4;;
61570;SDS011;47463;49.884;10.010;2023-11-19T09:20:00;3.6;;;2.4;;
61570;SDS011;47463;49.884;10.010;2023-11-19T09:25:00;3.7;;;2.3;;
61570;SDS011;47463;49.884;10.010;2023-11-19T09:30:00;4.8;;;2.5;;
61570;SDS011;47463;49.884;10.010;2023-11-19T09:35:00;5;;;2.9;;
61570;SDS011;47463;49.884;10.010;2023-11-19T09:40:00;2.9;;;2.2;;
61570;SDS011;47463;49.884;10.010;2023-11-19T09:45:00;3.2;;;2.2;;
61570;SDS011;47463;49.884;10.010;2023-11-19T09:50:00;3.2;;;2.2;;
61570;SDS011;47463;49.884;10.010;2023-11-19T09:55:00;3.4;;;2;;
61570;SDS011;47463;49.884;10.010;2023-11-19T10:00:00;5.5;;;2.1;;
61570;SDS011;47463;49.884;10.010;2023-11-19T10:05:00;7.2;;;2.2;;
61570;SDS011;47463;49.884;10.010;2023-11-19T10:10:00;5.9;;;2;;
61570;SDS011;47463;49.884;10.010;2023-11-19T10:15:00;3.7;;;1.9;;
61570;SDS011;47463;49.884;10.010;2023-11-19T10:20:00;3.7;;;1.9;;
61570;SDS011;47463;49.884;10.010;2023-11-19T10:25:00;6.4;;;2.3;;
61570;SDS011;47463;49.884;10.010;2023-11-19T10:30:00;4.7;;;2.1;;
61570;SDS011;47463;49.884;10.010;2023-11-19T10:35:07;6;;;1.8;;
61570;SDS011;47463;49.884;10.010;2023-11-19T10:40:00;4.5;;;1.9;;
61570;SDS011;47463;49.884;10.010;2023-11-19T10:45:00;4.9;;;1.5;;
61570;SDS011;47463;49.884;10.010;2023-11-19T10:50:00;4.9;;;1.5;;
61570;SDS011;47463;49.884;10.010;2023-11-19T10:55:00;7.6;;;1.8;;
61570;SDS011;47463;49.884;10.010;2023-11-19T11:00:00;7.2;;;2;;
61570;SDS011;47463;49.884;10.010;2023-11-19T11:05:00;5.5;;;1.9;;
61570;SDS011;47463;49.884;10.010;2023-11-19T11:10:00;5.5;;;1.8;;
61570;SDS011;47463;49.884;10.010;2023-11-19T11:15:00;5.5;;;1.9;;
61570;SDS011;47463;49.884;10.010;2023-11-19T11:20:00;5.5;;;1.9;;
61570;SDS011;47463;49.884;10.010;2023-11-19T11:25:34;9.8;;;2.3;;
61570;SDS011;47463;49.884;10.010;2023-11-19T11:30:02;4.4;;;2.1;;
61570;SDS011;47463;49.884;10.010;2023-11-19T11:35:06;9.7;;;2.1;;
61570;SDS011;47463;49.884;10.010;2023-11-19T11:40:00;6.7;;;2.1;;
61570;SDS011;47463;49.884;10.010;2023-11-19T11:45:00;5;;;2;;
61570;SDS011;47463;49.884;10.010;2023-11-19T11:50:03;5;;;2;;
61570;SDS011;47463;49.884;10.010;2023-11-19T11:55:02;10.3;;;2.2;;
61570;SDS011;47463;49.884;10.010;2023-11-19T12:00:01;8.6;;;2.3;;
61570;SDS011;47463;49.884;10.010;2023-11-19T12:05:00;5.1;;;1.8;;
61570;SDS011;47463;49.884;10.010;2023-11-19T12:10:05;5.5;;;2;;
61570;SDS011;47463;49.884;10.010;2023-11-19T12:15:04;6.8;;;2.2;;
61570;SDS011;47463;49.884;10.010;2023-11-19T12:20:00;6.8;;;2.2;;
61570;SDS011;47463;49.884;10.010;2023-11-19T12:25:00;5.3;;;2;;
61570;SDS011;47463;49.884;10.010;2023-11-19T12:30:00;5.9;;;1.7;;
61570;SDS011;47463;49.884;10.010;2023-11-19T12:35:00;5.5;;;1.7;;
61570;SDS011;47463;49.884;10.010;2023-11-19T12:40:00;4.6;;;1.9;;
61570;SDS011;47463;49.884;10.010;2023-11-19T12:45:00;6.2;;;2;;
61570;SDS011;47463;49.884;10.010;2023-11-19T12:50:00;6.2;;;2;;
61570;SDS011;47463;49.884;10.010;2023-11-19T12:55:00;6;;;1.9;;
61570;SDS011;47463;49.884;10.010;2023-11-19T13:00:00;6.6;;;2.6;;
61570;SDS011;47463;49.884;10.010;2023-11-19T13:05:19;6.6;;;2.2;;
61570;SDS011;47463;49.884;10.010;2023-11-19T13:10:01;6.9;;;1.8;;
61570;SDS011;47463;49.884;10.010;2023-11-19T13:15:00;5;;;1.6;;
61570;SDS011;47463;49.884;10.010;2023-11-19T13:20:00;5;;;1.6;;
61570;SDS011;47463;49.884;10.010;2023-11-19T13:25:00;6.5;;;2.2;;
61570;SDS011;47463;49.884;10.010;2023-11-19T13:30:00;4.3;;;1.5;;
61570;SDS011;47463;49.884;10.010;2023-11-19T13:35:00;3.8;;;1.5;;
61570;SDS011;47463;49.884;10.010;2023-11-19T13:40:00;5.5;;;2.4;;
61570;SDS011;47463;49.884;10.010;2023-11-19T13:45:00;7.1;;;1.6;;
61570;SDS011;47463;49.884;10.010;2023-11-19T13:50:00;7.1;;;1.6;;
61570;SDS011;47463;49.884;10.010;2023-11-19T13:55:00;7.7;;;2;;
61570;SDS011;47463;49.884;10.010;2023-11-19T14:00:00;4.6;;;1.9;;
61570;SDS011;47463;49.884;10.010;2023-11-19T14:05:00;4.6;;;1.6;;
61570;SDS011;47463;49.884;10.010;2023-11-19T14:10:00;4.2;;;1.5;;
61570;SDS011;47463;49.884;10.010;2023-11-19T14:15:00;6.8;;;1.5;;
61570;SDS011;47463;49.884;10.010;2023-11-19T14:20:00;6.8;;;1.5;;
61570;SDS011;47463;49.884;10.010;2023-11-19T14:25:00;4.6;;;1.3;;
61570;SDS011;47463;49.884;10.010;2023-11-19T14:30:00;10.8;;;2;;
61570;SDS011;47463;49.884;10.010;2023-11-19T14:35:00;8.7;;;2.1;;
61570;SDS011;47463;49.884;10.010;2023-11-19T14:40:00;6.1;;;1.3;;
61570;SDS011;47463;49.884;10.010;2023-11-19T14:45:00;5.2;;;1.5;;
61570;SDS011;47463;49.884;10.010;2023-11-19T14:50:00;5.2;;;1.5;;
61570;SDS011;47463;49.884;10.010;2023-11-19T14:55:00;4.4;;;1.6;;
61570;SDS011;47463;49.884;10.010;2023-11-19T15:00:00;8.9;;;1.4;;
61570;SDS011;47463;49.884;10.010;2023-11-19T15:05:00;8.5;;;1.8;;
61570;SDS011;47463;49.884;10.010;2023-11-19T15:10:00;5.8;;;1.6;;
61570;SDS011;47463;49.884;10.010;2023-11-19T15:15:00;8.3;;;1.6;;
61570;SDS011;47463;49.884;10.010;2023-11-19T15:20:00;8.3;;;1.6;;
61570;SDS011;47463;49.884;10.010;2023-11-19T15:25:00;6.9;;;1.6;;
61570;SDS011;47463;49.884;10.010;2023-11-19T15:30:00;5.2;;;1.6;;
61570;SDS011;47463;49.884;10.010;2023-11-19T15:35:00;4.1;;;1.2;;
61570;SDS011;47463;49.884;10.010;2023-11-19T15:40:00;8.2;;;1.7;;
61570;SDS011;47463;49.884;10.010;2023-11-19T15:45:00;5.7;;;1.7;;
61570;SDS011;47463;49.884;10.010;2023-11-19T15:50:00;5.7;;;1.7;;
61570;SDS011;47463;49.884;10.010;2023-11-19T15:55:00;7.6;;;2.1;;
61570;SDS011;47463;49.884;10.010;2023-11-19T16:00:00;6.2;;;1.5;;
61570;SDS011;47463;49.884;10.010;2023-11-19T16:05:00;7.5;;;1.7;;
61570;SDS011;47463;49.884;10.010;2023-11-19T16:10:00;8.2;;;1.9;;
61570;SDS011;47463;49.884;10.010;2023-11-19T16:15:00;5.6;;;1.4;;
61570;SDS011;47463;49.884;10.010;2023-11-19T16:20:00;5.6;;;1.4;;
61570;SDS011;47463;49.884;10.010;2023-11-19T16:25:00;11.5;;;1.9;;
61570;SDS011;47463;49.884;10.010;2023-11-19T16:30:00;8.5;;;1.9;;
61570;SDS011;47463;49.884;10.010;2023-11-19T16:35:00;6.9;;;1.7;;
61570;SDS011;47463;49.884;10.010;2023-11-19T16:40:00;5;;;1.5;;
61570;SDS011;47463;49.884;10.010;2023-11-19T16:45:00;6.9;;;1.5;;
61570;SDS011;47463;49.884;10.010;2023-11-19T16:50:00;6.9;;;1.5;;
61570;SDS011;47463;49.884;10.010;2023-11-19T16:55:00;6.9;;;1.7;;
61570;SDS011;47463;49.884;10.010;2023-11-19T17:00:00;4.6;;;1.7;;
61570;SDS011;47463;49.884;10.010;2023-11-19T17:05:00;6;;;1.4;;
61570;SDS011;47463;49.884;10.010;2023-11-19T17:10:00;6;;;2;;
61570;SDS011;47463;49.884;10.010;2023-11-19T17:15:00;9.6;;;1.4;;
61570;SDS011;47463;49.884;10.010;2023-11-19T17:20:00;9.6;;;1.4;;
61570;SDS011;47463;49.884;10.010;2023-11-19T17:25:00;5.9;;;1.4;;
61570;SDS011;47463;49.884;10.010;2023-11-19T17:30:00;4.6;;;1.7;;
61570;SDS011;47463;49.884;10.010;2023-11-19T17:35:00;3.5;;;1.3;;
61570;SDS011;47463;49.884;10.010;2023-11-19T17:40:00;5;;;1.4;;
61570;SDS011;47463;49.884;10.010;2023-11-19T17:45:00;7.3;;;1.8;;
61570;SDS011;47463;49.884;10.010;2023-11-19T17:50:00;7.3;;;1.8;;
61570;SDS011;47463;49.884;10.010;2023-11-19T17:55:00;4;;;2.2;;
61570;SDS011;47463;49.884;10.010;2023-11-19T18:00:00;7.7;;;1.7;;
61570;SDS011;47463;49.884;10.010;2023-11-19T18:05:00;7;;;2.1;;
61570;SDS011;47463;49.884;10.010;2023-11-19T18:10:00;8.3;;;2;;
61570;SDS011;47463;49.884;10.010;2023-11-19T18:15:00;7.8;;;1.8;;
61570;SDS011;47463;49.884;10.010;2023-11-19T18:20:00;7.8;;;1.8;;
61570;SDS011;47463;49.884;10.010;2023-11-19T18:25:00;8.5;;;1.5;;
61570;SDS011;47463;49.884;10.010;2023-11-19T18:30:00;7.9;;;1.8;;
61570;SDS011;47463;49.884;10.010;2023-11-19T18:35:00;8.9;;;1.9;;
61570;SDS011;47463;49.884;10.010;2023-11-19T18:40:00;5.7;;;1.6;;
61570;SDS011;47463;49.884;10.010;2023-11-19T18:45:00;6.7;;;1.5;;
61570;SDS011;47463;49.884;10.010;2023-11-19T18:50:00;6.7;;;1.5;;
61570;SDS011;47463;49.884;10.010;2023-11-19T18:55:00;8.2;;;2.1;;
61570;SDS011;47463;49.884;10.010;2023-11-19T19:00:00;12.7;;;2;;
61570;SDS011;47463;49.884;10.010;2023-11-19T19:05:00;9.1;;;1.8;;
61570;SDS011;47463;49.884;10.010;2023-11-19T19:10:00;7.7;;;1.7;;
61570;SDS011;47463;49.884;10.010;2023-11-19T19:15:00;11.1;;;1.6;;
61570;SDS011;47463;49.884;10.010;2023-11-19T19:20:00;11.1;;;1.6;;
61570;SDS011;47463;49.884;10.010;2023-11-19T19:25:00;11.3;;;1.9;;
61570;SDS011;47463;49.884;10.010;2023-11-19T19:30:00;12.9;;;2.1;;
61570;SDS011;47463;49.884;10.010;2023-11-19T19:35:00;9.3;;;1.7;;
61570;SDS011;47463;49.884;10.010;2023-11-19T19:40:00;8.5;;;2.1;;
61570;SDS011;47463;49.884;10.010;2023-11-19T19:45:00;10.1;;;1.9;;
61570;SDS011;47463;49.884;10.010;2023-11-19T19:50:00;10.1;;;1.9;;
61570;SDS011;47463;49.884;10.010;2023-11-19T19:55:00;9.3;;;2.5;;
61570;SDS011;47463;49.884;10.010;2023-11-19T20:00:00;8.7;;;2.6;;
61570;SDS011;47463;49.884;10.010;2023-11-19T20:05:00;8.4;;;2.3;;
61570;SDS011;47463;49.884;10.010;2023-11-19T20:10:00;6.5;;;2.2;;
61570;SDS011;47463;49.884;10.010;2023-11-19T20:15:00;10;;;2.7;;
61570;SDS011;47463;49.884;10.010;2023-11-19T20:20:00;10;;;2.7;;
61570;SDS011;47463;49.884;10.010;2023-11-19T20:25:00;7.6;;;2.4;;
61570;SDS011;47463;49.884;10.010;2023-11-19T20:30:00;8.7;;;2.2;;
61570;SDS011;47463;49.884;10.010;2023-11-19T20:35:00;11.6;;;2.3;;
61570;SDS011;47463;49.884;10.010;2023-11-19T20:40:00;14.2;;;2.5;;
61570;SDS011;47463;49.884;10.010;2023-11-19T20:45:00;9.2;;;1.9;;
61570;SDS011;47463;49.884;10.010;2023-11-19T20:50:00;9.2;;;1.9;;
61570;SDS011;47463;49.884;10.010;2023-11-19T20:55:00;8.7;;;2.2;;
61570;SDS011;47463;49.884;10.010;2023-11-19T21:00:00;15.4;;;3.2;;
61570;SDS011;47463;49.884;10.010;2023-11-19T21:05:00;15.4;;;2.5;;
61570;SDS011;47463;49.884;10.010;2023-11-19T21:10:00;8.2;;;2.3;;
61570;SDS011;47463;49.884;10.010;2023-11-19T21:15:00;13.2;;;3.7;;
61570;SDS011;47463;49.884;10.010;2023-11-19T21:20:00;13.2;;;3.7;;
61570;SDS011;47463;49.884;10.010;2023-11-19T21:25:00;14.8;;;2.8;;
61570;SDS011;47463;49.884;10.010;2023-11-19T21:30:00;9;;;2.6;;
61570;SDS011;47463;49.884;10.010;2023-11-19T21:35:00;14.8;;;2.6;;
61570;SDS011;47463;49.884;10.010;2023-11-19T21:40:00;11.2;;;2.4;;
61570;SDS011;47463;49.884;10.010;2023-11-19T21:45:00;10.5;;;2.5;;
61570;SDS011;47463;49.884;10.010;2023-11-19T21:50:00;10.5;;;2.5;;
61570;SDS011;47463;49.884;10.010;2023-11-19T21:55:00;11.7;;;2.3;;
61570;SDS011;47463;49.884;10.010;2023-11-19T22:00:00;12;;;2.9;;
61570;SDS011;47463;49.884;10.010;2023-11-19T22:05:00;10.2;;;2.4;;
61570;SDS011;47463;49.884;10.010;2023-11-19T22:10:00;14.9;;;2.7;;
61570;SDS011;47463;49.884;10.010;2023-11-19T22:15:00;12.6;;;2.8;;
61570;SDS011;47463;49.884;10.010;2023-11-19T22:20:00;12.6;;;2.8;;
61570;SDS011;47463;49.884;10.010;2023-11-19T22:25:00;12.5;;;2.6;;
61570;SDS011;47463;49.884;10.010;2023-11-19T22:30:00;15;;;2.4;;
61570;SDS011;47463;49.884;10.010;2023-11-19T22:35:00;12.7;;;2.2;;
61570;SDS011;47463;49.884;10.010;2023-11-19T22:40:00;12.2;;;2.5;;
61570;SDS011;47463;49.884;10.010;2023-11-19T22:45:00;13.7;;;3.3;;
61570;SDS011;47463;49.884;10.010;2023-11-19T22:50:00;13.7;;;3.3;;
61570;SDS011;47463;49.884;10.010;2023-11-19T22:55:00;7.9;;;2.2;;
61570;SDS011;47463;49.884;10.010;2023-11-19T23:00:00;9.2;;;3.1;;
61570;SDS011;47463;49.884;10.010;2023-11-19T23:05:00;13.6;;;2.6;;
61570;SDS011;47463;49.884;10.010;2023-11-19T23:10:00;12.5;;;2.3;;
61570;SDS011;47463;49.884;10.010;2023-11-19T23:15:00;14.3;;;2.3;;
61570;SDS011;47463;49.884;10.010;2023-11-19T23:20:00;14.3;;;2.3;;
61570;SDS011;47463;49.884;10.010;2023-11-19T23:25:00;10;;;2.1;;
61570;SDS011;47463;49.884;10.010;2023-11-19T23:30:00;11.4;;;2.1;;
61570;SDS011;47463;49.884;10.010;2023-11-19T23:35:00;13.3;;;2.9;;
61570;SDS011;47463;49.884;10.010;2023-11-19T23:40:00;10.2;;;2.3;;
61570;SDS011;47463;49.884;10.010;2023-11-19T23:45:00;11.5;;;2;;
61570;SDS011;47463;49.884;10.010;2023-11-19T23:50:00;11.5;;;2;;
61570;SDS011;47463;49.884;10.010;2023-11-19T23:55:00;12;;;2.5;;
